Terminal Aerodrome Forecast
Issued by NWS Paducah, KY

Home | Current Version | Previous Version | Text Only | Print | Product List | Glossary On
Versions: 1 2 3 4 5 6 7 8 9 10 11 12 13 14 15 16 17 18 19 20
000
FTUS43 KPAH 271120
TAFEVV
TAF
KEVV 271120Z 2712/2812 VRB06KT P6SM SCT025 BKN050
      TEMPO 2712/2715 4SM BR BKN025
     FM271500 23007KT P6SM VCTS SCT025CB BKN035
     FM280200 VRB05KT 4SM -TSRA OVC025CB
     FM280800 VRB03KT P6SM SCT020 BKN040=

USA.gov is the U.S. government's official web portal to all federal, state and local government web resources and services.